DAL720 KLAS-KLAS
Flight info
| Callsign | DAL720 |
|---|---|
| Flight time | 0h 6m |
| Altitude | 39000 |
| Route | RV |
| Aircraft | A333/H-SDE3GHIJ2J3J5M1RVWXY/LB2D1 |
Departure
| Time | 2026-05-08 05:57 |
|---|---|
| Airport | Harry Reid International Airport (KLAS) |
Arrival
| Time | 2026-05-08 06:03 |
|---|---|
| Airport | Harry Reid International Airport (KLAS) |
| Time | Latitude | Longitude | Altitude | Speed | Heading |
|---|---|---|---|---|---|
| 2026-05-08 05:40 | 35.89105 | -113.74810 | 29901 ft | 455 kts | 93° |
| 2026-05-08 05:40 | 35.88373 | -113.71013 | 29773 ft | 458 kts | 109° |
| 2026-05-08 05:40 | 35.86834 | -113.67571 | 29186 ft | 461 kts | 126° |
| 2026-05-08 05:40 | 35.84559 | -113.64816 | 28788 ft | 459 kts | 142° |
| 2026-05-08 05:41 | 35.81758 | -113.62961 | 28329 ft | 457 kts | 159° |
| 2026-05-08 05:41 | 35.78664 | -113.62157 | 27851 ft | 455 kts | 176° |
| 2026-05-08 05:41 | 35.75522 | -113.62375 | 27376 ft | 451 kts | 188° |
| 2026-05-08 05:41 | 35.72441 | -113.63001 | 26914 ft | 447 kts | 190° |
| 2026-05-08 05:42 | 35.69391 | -113.63675 | 26440 ft | 444 kts | 191° |
| 2026-05-08 05:42 | 35.66361 | -113.64349 | 25981 ft | 441 kts | 191° |
| 2026-05-08 05:42 | 35.63349 | -113.65020 | 25526 ft | 438 kts | 191° |
| 2026-05-08 05:42 | 35.60359 | -113.65685 | 25071 ft | 435 kts | 191° |
| 2026-05-08 05:43 | 35.57388 | -113.66345 | 24626 ft | 432 kts | 191° |
| 2026-05-08 05:43 | 35.54436 | -113.67001 | 24183 ft | 430 kts | 191° |
| 2026-05-08 05:43 | 35.51513 | -113.67653 | 23831 ft | 425 kts | 191° |
| 2026-05-08 05:43 | 35.48621 | -113.68303 | 23449 ft | 421 kts | 191° |
| 2026-05-08 05:44 | 35.45753 | -113.68948 | 22953 ft | 418 kts | 191° |
| 2026-05-08 05:44 | 35.42959 | -113.69853 | 22456 ft | 414 kts | 204° |
| 2026-05-08 05:44 | 35.40538 | -113.71687 | 21970 ft | 408 kts | 223° |
| 2026-05-08 05:44 | 35.38740 | -113.74317 | 21500 ft | 400 kts | 242° |
| 2026-05-08 05:45 | 35.37723 | -113.77453 | 20858 ft | 395 kts | 261° |
| 2026-05-08 05:45 | 35.37595 | -113.80777 | 20276 ft | 389 kts | 281° |
| 2026-05-08 05:45 | 35.38361 | -113.83904 | 19779 ft | 380 kts | 300° |
| 2026-05-08 05:45 | 35.39892 | -113.86485 | 19286 ft | 373 kts | 316° |
| 2026-05-08 05:46 | 35.41776 | -113.88641 | 18819 ft | 369 kts | 320° |
| 2026-05-08 05:46 | 35.43690 | -113.90718 | 18336 ft | 366 kts | 320° |
| 2026-05-08 05:46 | 35.45597 | -113.92777 | 17792 ft | 364 kts | 321° |
| 2026-05-08 05:46 | 35.47489 | -113.94819 | 17239 ft | 361 kts | 321° |
| 2026-05-08 05:47 | 35.49343 | -113.96821 | 16709 ft | 358 kts | 321° |
| 2026-05-08 05:47 | 35.51203 | -113.98838 | 16194 ft | 356 kts | 321° |
| 2026-05-08 05:47 | 35.53049 | -114.00841 | 15657 ft | 353 kts | 321° |
| 2026-05-08 05:47 | 35.54881 | -114.02835 | 15150 ft | 350 kts | 321° |
| 2026-05-08 05:48 | 35.56721 | -114.04840 | 14632 ft | 348 kts | 321° |
| 2026-05-08 05:48 | 35.58497 | -114.06778 | 14161 ft | 345 kts | 321° |
| 2026-05-08 05:48 | 35.60287 | -114.08734 | 13625 ft | 343 kts | 321° |
| 2026-05-08 05:48 | 35.62069 | -114.10681 | 13072 ft | 342 kts | 321° |
| 2026-05-08 05:49 | 35.63842 | -114.12611 | 12529 ft | 340 kts | 321° |
| 2026-05-08 05:49 | 35.65610 | -114.14529 | 12062 ft | 337 kts | 321° |
| 2026-05-08 05:49 | 35.67367 | -114.16429 | 11883 ft | 336 kts | 321° |
| 2026-05-08 05:49 | 35.69129 | -114.18327 | 11875 ft | 337 kts | 321° |
| 2026-05-08 05:50 | 35.70893 | -114.20223 | 11870 ft | 337 kts | 321° |
| 2026-05-08 05:50 | 35.72657 | -114.22117 | 11875 ft | 337 kts | 321° |
| 2026-05-08 05:50 | 35.74420 | -114.24010 | 11864 ft | 336 kts | 321° |
| 2026-05-08 05:50 | 35.76184 | -114.25905 | 11864 ft | 337 kts | 321° |
| 2026-05-08 05:51 | 35.77948 | -114.27801 | 11855 ft | 337 kts | 321° |
| 2026-05-08 05:51 | 35.79712 | -114.29698 | 11854 ft | 337 kts | 321° |
| 2026-05-08 05:51 | 35.81475 | -114.31592 | 11853 ft | 335 kts | 321° |
| 2026-05-08 05:51 | 35.83203 | -114.33452 | 11840 ft | 324 kts | 321° |
| 2026-05-08 05:52 | 35.84879 | -114.35255 | 11623 ft | 315 kts | 321° |
| 2026-05-08 05:52 | 35.86501 | -114.36998 | 11450 ft | 304 kts | 321° |
| 2026-05-08 05:52 | 35.88067 | -114.38681 | 11247 ft | 295 kts | 321° |
| 2026-05-08 05:52 | 35.89607 | -114.40335 | 10900 ft | 292 kts | 321° |
| 2026-05-08 05:53 | 35.91139 | -114.41973 | 10542 ft | 291 kts | 321° |
| 2026-05-08 05:53 | 35.92669 | -114.43601 | 10168 ft | 290 kts | 321° |
| 2026-05-08 05:53 | 35.94194 | -114.45215 | 9910 ft | 288 kts | 321° |
| 2026-05-08 05:53 | 35.95716 | -114.46820 | 9858 ft | 288 kts | 321° |
| 2026-05-08 05:54 | 35.97162 | -114.48538 | 9862 ft | 290 kts | 313° |
| 2026-05-08 05:54 | 35.98472 | -114.50433 | 9613 ft | 292 kts | 311° |
| 2026-05-08 05:54 | 35.99763 | -114.52364 | 9209 ft | 290 kts | 311° |
| 2026-05-08 05:54 | 36.01044 | -114.54273 | 8879 ft | 287 kts | 310° |
| 2026-05-08 05:55 | 36.02321 | -114.56155 | 8531 ft | 285 kts | 310° |
| 2026-05-08 05:55 | 36.03596 | -114.58014 | 8164 ft | 283 kts | 310° |
| 2026-05-08 05:55 | 36.04873 | -114.59840 | 7933 ft | 279 kts | 310° |
| 2026-05-08 05:55 | 36.06153 | -114.61640 | 7894 ft | 279 kts | 310° |
| 2026-05-08 05:56 | 36.07247 | -114.63607 | 7895 ft | 279 kts | 296° |
| 2026-05-08 05:56 | 36.08016 | -114.65808 | 7903 ft | 279 kts | 291° |
| 2026-05-08 05:56 | 36.08675 | -114.68058 | 7907 ft | 279 kts | 288° |
| 2026-05-08 05:56 | 36.09194 | -114.70369 | 7911 ft | 280 kts | 282° |
| 2026-05-08 05:57 | 36.09362 | -114.72760 | 7917 ft | 280 kts | 269° |
| 2026-05-08 05:57 | 36.09241 | -114.75163 | 7921 ft | 280 kts | 265° |
| 2026-05-08 05:57 | 36.09044 | -114.77561 | 7934 ft | 281 kts | 264° |
| 2026-05-08 05:57 | 36.08763 | -114.79950 | 7939 ft | 281 kts | 258° |
| 2026-05-08 05:58 | 36.08209 | -114.82268 | 7943 ft | 282 kts | 252° |
| 2026-05-08 05:58 | 36.07595 | -114.84568 | 7947 ft | 281 kts | 256° |
| 2026-05-08 05:58 | 36.07302 | -114.86948 | 7806 ft | 282 kts | 267° |
| 2026-05-08 05:58 | 36.07254 | -114.89390 | 7252 ft | 285 kts | 271° |
| 2026-05-08 05:59 | 36.07309 | -114.91810 | 6663 ft | 274 kts | 272° |
| 2026-05-08 05:59 | 36.07366 | -114.94080 | 6121 ft | 253 kts | 270° |
| 2026-05-08 05:59 | 36.07332 | -114.96163 | 5719 ft | 233 kts | 268° |
| 2026-05-08 05:59 | 36.07287 | -114.98092 | 5322 ft | 215 kts | 268° |
| 2026-05-08 06:00 | 36.07324 | -114.99870 | 4964 ft | 200 kts | 273° |
| 2026-05-08 06:00 | 36.07382 | -115.01532 | 4580 ft | 189 kts | 270° |
| 2026-05-08 06:00 | 36.07367 | -115.03128 | 4129 ft | 183 kts | 269° |
| 2026-05-08 06:00 | 36.07368 | -115.04682 | 3690 ft | 177 kts | 270° |
| 2026-05-08 06:01 | 36.07390 | -115.06176 | 3312 ft | 171 kts | 270° |
| 2026-05-08 06:01 | 36.07371 | -115.07615 | 2973 ft | 164 kts | 268° |
| 2026-05-08 06:01 | 36.07375 | -115.08969 | 2693 ft | 150 kts | 269° |
| 2026-05-08 06:01 | 36.07374 | -115.10207 | 2431 ft | 139 kts | 268° |
| 2026-05-08 06:02 | 36.07370 | -115.11387 | 2270 ft | 138 kts | 266° |
| 2026-05-08 06:02 | 36.07367 | -115.12177 | 2171 ft | 141 kts | 266° |
| 2026-05-08 06:02 | 36.07365 | -115.13751 | 2080 ft | 122 kts | 269° |
| 2026-05-08 06:02 | 36.07363 | -115.14620 | 2095 ft | 71 kts | 270° |
| 2026-05-08 06:03 | 36.07375 | -115.15172 | 2103 ft | 57 kts | 278° |
| 2026-05-08 06:03 | 36.07479 | -115.15529 | 2110 ft | 39 kts | 300° |
| 2026-05-08 06:03 | 36.07640 | -115.15744 | 2130 ft | 31 kts | 316° |
| 2026-05-08 06:03 | 36.07787 | -115.15792 | 2115 ft | 21 kts | 50° |
| 2026-05-08 06:04 | 36.07805 | -115.15601 | 2108 ft | 24 kts | 91° |
| 2026-05-08 06:04 | 36.07801 | -115.15389 | 2106 ft | 25 kts | 90° |
| 2026-05-08 06:04 | 36.07802 | -115.15204 | 2105 ft | 22 kts | 90° |
| 2026-05-08 06:04 | 36.07798 | -115.15037 | 2104 ft | 15 kts | 94° |
| 2026-05-08 06:05 | 36.07789 | -115.14905 | 2103 ft | 16 kts | 94° |
| 2026-05-08 06:05 | 36.07780 | -115.14764 | 2102 ft | 17 kts | 96° |
| 2026-05-08 06:05 | 36.07769 | -115.14611 | 2101 ft | 18 kts | 94° |
| 2026-05-08 06:05 | 36.07759 | -115.14450 | 2100 ft | 19 kts | 94° |
| 2026-05-08 06:06 | 36.07751 | -115.14300 | 2100 ft | 11 kts | 91° |
| 2026-05-08 06:06 | 36.07752 | -115.14204 | 2099 ft | 11 kts | 79° |
| 2026-05-08 06:06 | 36.07808 | -115.14161 | 2098 ft | 9 kts | 14° |
| 2026-05-08 06:06 | 36.07873 | -115.14141 | 2098 ft | 8 kts | 14° |
| 2026-05-08 06:07 | 36.07932 | -115.14123 | 2098 ft | 10 kts | 14° |
| 2026-05-08 06:07 | 36.07940 | -115.14121 | 2098 ft | 0 kts | 14° |
| 2026-05-08 06:07 | 36.07945 | -115.14118 | 2098 ft | 1 kts | 21° |
| 2026-05-08 06:07 | 36.07957 | -115.14107 | 2098 ft | 3 kts | 40° |
| 2026-05-08 06:08 | 36.07972 | -115.14083 | 2097 ft | 4 kts | 54° |
| 2026-05-08 06:08 | 36.07984 | -115.14059 | 2097 ft | 2 kts | 58° |
| 2026-05-08 06:08 | 36.07990 | -115.14047 | 2097 ft | 1 kts | 58° |
| 2026-05-08 06:08 | 36.07992 | -115.14043 | 2097 ft | 0 kts | 59° |